Briefing drone pour Vic-sur-cere

Rechercher une autre localisation

Conditions de vol :


Nous sommes le : Samedi 17 avril 2021
Il est 11:44 UTC (13:44 LT)

Lever de soleil : 04:34 UTC (06:34 LT)
Coucher de soleil : 19:03 UTC (21:03 LT)

Météo

L'essentiel des conditions de vol

VIGILANCE MÉTÉO FRANCE - Cantal (15)
Pas de vigilances particulieres
CARTES DES FRONTS
METAR de LFLW
LFLW 171130Z AUTO VRB04KT 9999 FEW050 09/M03 Q1018 NOSIG

Date d'émission: 17/04/2021
Heure d'émission: 11:30 UTC
Vent: Variable 4 KT (7 km/h)
Visibilité horizontale: > 10 km
Plafond :
- Peu de nuages à 5000ft (1524m)
Température: 9 °C
Point de rosée: -3 °C
Humidité: 43%
Pression (QNH): 1018 hPa
Conditions: Pas de changement dans les 2 heures (NOSIG)
Prévision 24h pour Aurillac (9 km)
Vent : 5° pour 1 KT (4 km/h)
Temperature Maxi: 0 °C
Temperature Min: 0 °C
Humidité : 90%
Condition : Nuageux



Warning: count(): Parameter must be an array or an object that implements Countable in /homepages/6/d509196549/htdocs/droneoxygene/briefing.php on line 743
WEBCAM POUR VIC-SUR-CERE

Réglementation

Voler en sécurité

CARTES AERONAUTIQUE 1/500.000
CARTES VAC (LFLW)
SUP AIP




Chargement des AIP...
NOTAM (VIC-SUR-CERE + Terrain à proximité / FIR )




Chargement des NOTAMS...
CONTACT PREFECTURE 15


Avertissement : Les données mises à disposition sont indicatives. Oxygène Drone ne pourra être tenu responsable de dégâts causés aux biens et aux personnes.